Time;durP1;ratioP1;P1;durP2;ratioP2;P2;SDS_P1;SDS_P2;PMS_P1;PMS_P2;Temp;Humidity;BMP_temperature;BMP_pressure;BME280_temperature;BME280_humidity;BME280_pressure;Samples;Min_cycle;Max_cycle;Signal;HPM_P1;HPM_P2
2022/10/04 00:02:09;;;;;;;;;;;;;;;;;;5091257;28;19912;-67
2022/10/04 00:04:34;;;;;;;;;;;;;;;;;;5084654;28;20361;-67
2022/10/04 00:07:00;;;;;;;;;;;;;;;;;;5089690;28;19912;-67
2022/10/04 00:09:25;;;;;;;;;;;;;;;;;;5090936;28;19912;-67
2022/10/04 00:11:50;;;;;;;;;;;;;;;;;;5088242;28;20372;-67
2022/10/04 00:14:15;;;;;;;;;;;;;;;;;;5076207;28;20364;-67
2022/10/04 00:16:42;;;;;;;;;;;;;;;;;;5076924;28;19919;-67
2022/10/04 00:19:07;;;;;;;;;;;;;;;;;;5078423;28;19920;-66
2022/10/04 00:21:32;;;;;;;;;;;;;;;;;;5064248;28;19919;-66
2022/10/04 00:23:58;;;;;;;;;;;;;;;;;;5064981;28;19920;-67
2022/10/04 00:26:23;;;;;;;;;;;;;;;;;;5064649;28;19916;-67
2022/10/04 00:28:48;;;;;;;;;;;;;;;;;;5086856;28;19912;-68
2022/10/04 00:31:14;;;;;;;;;;;;;;;;;;5068226;28;19908;-67
2022/10/04 00:33:39;;;;;;;;;;;;;;;;;;5070585;28;20486;-67
2022/10/04 00:36:04;;;;;;;;;;;;;;;;;;5064160;28;19916;-67
2022/10/04 00:38:29;;;;;;;;;;;;;;;;;;5076698;28;19918;-67
2022/10/04 00:40:54;;;;;;;;;;;;;;;;;;5079606;28;19912;-68
2022/10/04 00:43:20;;;;;;;;;;;;;;;;;;5062240;28;19916;-67
2022/10/04 00:45:45;;;;;;;;;;;;;;;;;;5076588;28;19913;-67
2022/10/04 00:48:10;;;;;;;;;;;;;;;;;;5067307;28;19966;-67
2022/10/04 00:50:35;;;;;;;;;;;;;;;;;;5075429;28;19920;-67
2022/10/04 00:53:00;;;;;;;;;;;;;;;;;;5071554;28;20296;-67
2022/10/04 00:55:25;;;;;;;;;;;;;;;;;;5060205;28;20370;-66
2022/10/04 00:57:52;;;;;;;;;;;;;;;;;;5071113;28;19920;-67
2022/10/04 01:00:18;;;;;;;;;;;;;;;;;;5086064;28;19920;-67
2022/10/04 01:02:43;;;;;;;;;;;;;;;;;;5087174;28;19912;-67
2022/10/04 01:05:09;;;;;;;;;;;;;;;;;;5085732;28;19920;-67
2022/10/04 01:07:36;;;;;;;;;;;;;;;;;;5081646;28;19913;-67
2022/10/04 01:10:01;;;;;;;;;;;;;;;;;;5092799;28;19955;-67
2022/10/04 01:12:26;;;;;;;;;;;;;;;;;;5082788;28;19966;-67
2022/10/04 01:14:51;;;;;;;;;;;;;;;;;;5090810;28;19919;-65
2022/10/04 01:17:16;;;;;;;;;;;;;;;;;;5083708;28;19933;-66
2022/10/04 01:19:42;;;;;;;;;;;;;;;;;;5080046;28;19928;-66
2022/10/04 01:22:07;;;;;;;;;;;;;;;;;;5091379;28;19935;-67
2022/10/04 01:24:33;;;;;;;;;;;;;;;;;;5091135;28;20473;-66
2022/10/04 01:26:59;;;;;;;;;;;;;;;;;;5065893;28;19966;-67
2022/10/04 01:29:24;;;;;;;;;;;;;;;;;;5091400;28;20032;-66
2022/10/04 01:31:50;;;;;;;;;;;;;;;;;;5085119;28;20280;-67
2022/10/04 01:34:15;;;;;;;;;;;;;;;;;;5075404;28;20466;-67
2022/10/04 01:36:40;;;;;;;;;;;;;;;;;;5077942;28;20401;-68
2022/10/04 01:39:05;;;;;;;;;;;;;;;;;;5068460;28;20410;-68
2022/10/04 01:41:30;;;;;;;;;;;;;;;;;;5089674;28;19944;-67
2022/10/04 01:43:55;;;;;;;;;;;;;;;;;;5075583;28;19920;-67
2022/10/04 01:46:20;;;;;;;;;;;;;;;;;;5076268;28;19955;-67
2022/10/04 01:48:46;;;;;;;;;;;;;;;;;;5080824;28;19916;-67
2022/10/04 01:51:11;;;;;;;;;;;;;;;;;;5086428;28;20003;-66
2022/10/04 01:53:37;;;;;;;;;;;;;;;;;;5092918;28;19912;-67
2022/10/04 01:56:02;;;;;;;;;;;;;;;;;;5085477;28;20004;-67
2022/10/04 01:58:27;;;;;;;;;;;;;;;;;;5063411;28;19916;-67
2022/10/04 02:00:52;;;;;;;;;;;;;;;;;;5076627;28;19912;-67
2022/10/04 02:03:17;;;;;;;;;;;;;;;;;;5067707;28;19963;-67
2022/10/04 02:05:42;;;;;;;;;;;;;;;;;;5076269;28;19924;-66
2022/10/04 02:08:07;;;;;;;;;;;;;;;;;;5071386;28;19912;-66
2022/10/04 02:10:35;;;;;;;;;;;;;;;;;;5093875;28;19920;-67
2022/10/04 02:13:00;;;;;;;;;;;;;;;;;;5084352;28;19966;-66
2022/10/04 02:15:27;;;;;;;;;;;;;;;;;;5093668;28;19916;-67
2022/10/04 02:17:52;;;;;;;;;;;;;;;;;;5090988;28;19972;-67
2022/10/04 02:20:17;;;;;;;;;;;;;;;;;;5072909;28;20373;-67
2022/10/04 02:22:42;;;;;;;;;;;;;;;;;;5067815;28;19923;-65
2022/10/04 02:25:08;;;;;;;;;;;;;;;;;;5092439;28;20065;-67
2022/10/04 02:27:33;;;;;;;;;;;;;;;;;;5090925;28;20380;-65
2022/10/04 02:29:58;;;;;;;;;;;;;;;;;;5073028;28;20021;-66
2022/10/04 02:35:07;;;;;;;;;;;;;;;;;;5091552;28;20541;-66
2022/10/04 02:37:32;;;;;;;;;;;;;;;;;;5088359;28;20360;-67
2022/10/04 02:39:59;;;;;;;;;;;;;;;;;;5077394;28;19966;-66
2022/10/04 02:42:24;;;;;;;;;;;;;;;;;;5084575;28;19912;-66
2022/10/04 02:44:50;;;;;;;;;;;;;;;;;;5081286;28;20383;-67
2022/10/04 02:47:16;;;;;;;;;;;;;;;;;;5075456;28;19919;-66
2022/10/04 02:49:41;;;;;;;;;;;;;;;;;;5081103;28;19917;-66
2022/10/04 02:52:06;;;;;;;;;;;;;;;;;;5074906;28;19969;-67
2022/10/04 02:54:31;;;;;;;;;;;;;;;;;;5072027;28;19916;-66
2022/10/04 02:56:56;;;;;;;;;;;;;;;;;;5084301;28;19964;-66
2022/10/04 02:59:22;;;;;;;;;;;;;;;;;;5087712;28;19958;-66
2022/10/04 03:01:47;;;;;;;;;;;;;;;;;;5084563;28;20010;-67
2022/10/04 03:04:13;;;;;;;;;;;;;;;;;;5082198;28;19928;-66
2022/10/04 03:06:39;;;;;;;;;;;;;;;;;;5071372;28;19917;-67
2022/10/04 03:09:04;;;;;;;;;;;;;;;;;;5055846;28;19995;-67
2022/10/04 03:11:30;;;;;;;;;;;;;;;;;;5082051;28;20396;-66
2022/10/04 03:13:55;;;;;;;;;;;;;;;;;;5080745;28;19916;-67
2022/10/04 03:16:20;;;;;;;;;;;;;;;;;;5086211;28;19916;-68
2022/10/04 03:18:46;;;;;;;;;;;;;;;;;;5081496;28;20276;-67
2022/10/04 03:21:11;;;;;;;;;;;;;;;;;;5082871;28;19916;-67
2022/10/04 03:23:36;;;;;;;;;;;;;;;;;;5057749;28;19992;-67
2022/10/04 03:26:01;;;;;;;;;;;;;;;;;;5091193;28;20364;-67
2022/10/04 03:28:26;;;;;;;;;;;;;;;;;;5074783;28;20363;-68
2022/10/04 03:30:51;;;;;;;;;;;;;;;;;;5090966;28;19912;-68
2022/10/04 03:33:16;;;;;;;;;;;;;;;;;;5070379;28;19919;-68
2022/10/04 03:35:42;;;;;;;;;;;;;;;;;;5073395;28;19912;-68
2022/10/04 03:38:07;;;;;;;;;;;;;;;;;;5075127;28;20007;-66
2022/10/04 03:40:32;;;;;;;;;;;;;;;;;;5087453;28;19965;-67
2022/10/04 03:42:58;;;;;;;;;;;;;;;;;;5069021;28;20277;-67
2022/10/04 03:45:23;;;;;;;;;;;;;;;;;;5056211;28;19923;-66
2022/10/04 03:47:49;;;;;;;;;;;;;;;;;;5089749;28;19919;-67
2022/10/04 03:50:14;;;;;;;;;;;;;;;;;;5076879;28;19912;-67
2022/10/04 03:52:39;;;;;;;;;;;;;;;;;;5078902;28;19915;-67
2022/10/04 03:55:04;;;;;;;;;;;;;;;;;;5080518;28;19917;-67
2022/10/04 03:57:29;;;;;;;;;;;;;;;;;;5081688;28;20491;-68
2022/10/04 03:59:55;;;;;;;;;;;;;;;;;;5083941;28;20414;-68
2022/10/04 04:02:20;;;;;;;;;;;;;;;;;;5073282;28;20285;-68
2022/10/04 04:04:45;;;;;;;;;;;;;;;;;;5079401;28;19912;-68
2022/10/04 04:07:11;;;;;;;;;;;;;;;;;;5063619;28;19916;-68
2022/10/04 04:09:36;;;;;;;;;;;;;;;;;;5074290;28;19912;-68
2022/10/04 04:12:01;;;;;;;;;;;;;;;;;;5073384;28;19916;-66
2022/10/04 04:14:26;;;;;;;;;;;;;;;;;;5076168;28;19912;-66
2022/10/04 04:16:52;;;;;;;;;;;;;;;;;;5068119;28;19919;-66
2022/10/04 04:19:17;;;;;;;;;;;;;;;;;;5072136;28;19934;-67
2022/10/04 04:21:43;;;;;;;;;;;;;;;;;;5088668;28;19969;-68
2022/10/04 04:24:08;;;;;;;;;;;;;;;;;;5081250;28;19913;-67
2022/10/04 04:26:34;;;;;;;;;;;;;;;;;;5074935;28;19920;-66
2022/10/04 04:28:59;;;;;;;;;;;;;;;;;;5072652;28;19915;-67
2022/10/04 04:31:24;;;;;;;;;;;;;;;;;;5055752;28;20384;-66
2022/10/04 04:33:49;;;;;;;;;;;;;;;;;;5054701;28;19908;-67
2022/10/04 04:36:14;;;;;;;;;;;;;;;;;;5079086;28;19920;-66
2022/10/04 04:39:32;;;;;;;;;;;;;;;;;;5072016;28;19971;-67
2022/10/04 04:41:25;;;;;;;;;;;;;;;;;;5072325;28;20023;-67
2022/10/04 04:43:50;;;;;;;;;;;;;;;;;;5071823;28;19909;-67
2022/10/04 04:46:15;;;;;;;;;;;;;;;;;;5059930;28;19915;-66
2022/10/04 04:48:40;;;;;;;;;;;;;;;;;;5066026;28;19999;-67
2022/10/04 04:51:05;;;;;;;;;;;;;;;;;;5079836;28;19916;-67
2022/10/04 04:53:30;;;;;;;;;;;;;;;;;;5079975;28;19935;-68
2022/10/04 04:55:56;;;;;;;;;;;;;;;;;;5073785;28;20284;-67
2022/10/04 04:58:21;;;;;;;;;;;;;;;;;;5057043;28;19919;-67
2022/10/04 05:00:46;;;;;;;;;;;;;;;;;;5076265;28;19919;-67
2022/10/04 05:03:12;;;;;;;;;;;;;;;;;;5072144;28;19908;-67
2022/10/04 05:05:37;;;;;;;;;;;;;;;;;;5078245;28;19917;-69
2022/10/04 05:08:02;;;;;;;;;;;;;;;;;;5073315;28;19921;-70
2022/10/04 05:10:29;;;;;;;;;;;;;;;;;;5064886;28;19925;-70
2022/10/04 05:12:54;;;;;;;;;;;;;;;;;;5091898;28;19912;-69
2022/10/04 05:15:19;;;;;;;;;;;;;;;;;;5069429;28;20426;-71
2022/10/04 05:17:44;;;;;;;;;;;;;;;;;;5072914;28;19943;-67
2022/10/04 05:20:09;;;;;;;;;;;;;;;;;;5077599;28;20300;-69
2022/10/04 05:22:35;;;;;;;;;;;;;;;;;;5086484;28;20345;-70
2022/10/04 05:25:01;;;;;;;;;;;;;;;;;;5077577;28;19955;-71
2022/10/04 05:27:26;;;;;;;;;;;;;;;;;;5055115;28;19916;-70
2022/10/04 05:29:51;;;;;;;;;;;;;;;;;;5075654;28;20732;-71
2022/10/04 05:32:19;;;;;;;;;;;;;;;;;;5059435;28;19947;-70
2022/10/04 05:34:44;;;;;;;;;;;;;;;;;;5088910;28;19916;-70
2022/10/04 05:37:09;;;;;;;;;;;;;;;;;;5075381;28;19916;-68
2022/10/04 05:39:35;;;;;;;;;;;;;;;;;;5077441;28;20273;-69
2022/10/04 05:42:01;;;;;;;;;;;;;;;;;;5056584;28;19920;-68
2022/10/04 05:44:26;;;;;;;;;;;;;;;;;;5071256;28;19908;-70
2022/10/04 05:46:51;;;;;;;;;;;;;;;;;;5090789;28;19923;-71
2022/10/04 05:49:16;;;;;;;;;;;;;;;;;;5079517;28;20410;-72
2022/10/04 05:51:41;;;;;;;;;;;;;;;;;;5078593;28;19959;-71
2022/10/04 05:54:07;;;;;;;;;;;;;;;;;;5069832;28;19924;-71
2022/10/04 05:56:32;;;;;;;;;;;;;;;;;;5079579;28;20277;-70
2022/10/04 05:58:58;;;;;;;;;;;;;;;;;;5078676;28;19912;-71
2022/10/04 06:01:23;;;;;;;;;;;;;;;;;;5067334;28;19912;-70
2022/10/04 06:03:48;;;;;;;;;;;;;;;;;;5092776;28;20002;-71
2022/10/04 06:06:13;;;;;;;;;;;;;;;;;;5082427;28;19917;-68
2022/10/04 06:08:39;;;;;;;;;;;;;;;;;;5066519;28;19919;-71
2022/10/04 06:11:04;;;;;;;;;;;;;;;;;;5074735;28;19912;-69
2022/10/04 06:13:29;;;;;;;;;;;;;;;;;;5065806;28;19913;-71
2022/10/04 06:15:54;;;;;;;;;;;;;;;;;;5080643;28;19975;-71
2022/10/04 06:18:20;;;;;;;;;;;;;;;;;;5079840;28;22954;-71
2022/10/04 06:20:45;;;;;;;;;;;;;;;;;;5074129;28;19986;-72
2022/10/04 06:23:10;;;;;;;;;;;;;;;;;;5075579;28;19912;-71
2022/10/04 06:25:35;;;;;;;;;;;;;;;;;;5074955;28;19917;-71
2022/10/04 06:28:01;;;;;;;;;;;;;;;;;;5058612;28;19908;-70
2022/10/04 06:30:26;;;;;;;;;;;;;;;;;;5075054;28;20355;-71
2022/10/04 06:32:51;;;;;;;;;;;;;;;;;;5078793;28;20318;-71
2022/10/04 06:35:16;;;;;;;;;;;;;;;;;;5059830;28;19916;-70
2022/10/04 06:37:41;;;;;;;;;;;;;;;;;;5088174;28;19908;-71
2022/10/04 06:40:07;;;;;;;;;;;;;;;;;;5094548;28;19911;-68
2022/10/04 06:42:33;;;;;;;;;;;;;;;;;;5076519;28;19909;-71
2022/10/04 06:44:59;;;;;;;;;;;;;;;;;;5064754;28;20381;-70
2022/10/04 06:47:24;;;;;;;;;;;;;;;;;;5094875;28;19915;-73
2022/10/04 06:49:50;;;;;;;;;;;;;;;;;;5078991;28;20376;-70
2022/10/04 06:52:15;;;;;;;;;;;;;;;;;;5073507;28;20402;-70
2022/10/04 06:54:40;;;;;;;;;;;;;;;;;;5072946;28;20855;-69
2022/10/04 06:57:05;;;;;;;;;;;;;;;;;;5087995;28;19913;-69
2022/10/04 06:59:30;;;;;;;;;;;;;;;;;;5074381;28;19909;-70
2022/10/04 07:01:56;;;;;;;;;;;;;;;;;;5056537;28;19913;-70
2022/10/04 07:04:22;;;;;;;;;;;;;;;;;;5055454;28;19913;-70
2022/10/04 07:06:47;;;;;;;;;;;;;;;;;;5064991;28;20461;-68
2022/10/04 07:09:12;;;;;;;;;;;;;;;;;;5093478;28;19951;-69
2022/10/04 07:11:41;;;;;;;;;;;;;;;;;;5094371;28;19916;-69
2022/10/04 07:14:06;;;;;;;;;;;;;;;;;;5094105;28;19908;-70
2022/10/04 07:16:31;;;;;;;;;;;;;;;;;;5094012;28;20334;-70
2022/10/04 07:18:56;;;;;;;;;;;;;;;;;;5065583;28;20384;-70
2022/10/04 07:21:24;;;;;;;;;;;;;;;;;;5073445;28;19908;-70
2022/10/04 07:23:50;;;;;;;;;;;;;;;;;;5066508;28;19943;-69
2022/10/04 07:26:15;;;;;;;;;;;;;;;;;;5089173;28;19912;-70
2022/10/04 07:31:26;;;;;;;;;;;;;;;;;;5078453;28;20301;-70
2022/10/04 07:33:52;;;;;;;;;;;;;;;;;;5075660;28;19908;-69
2022/10/04 07:36:17;;;;;;;;;;;;;;;;;;5075377;28;19914;-70
2022/10/04 07:38:42;;;;;;;;;;;;;;;;;;5093331;28;20360;-69
2022/10/04 07:41:07;;;;;;;;;;;;;;;;;;5064974;28;20262;-70
2022/10/04 07:43:32;;;;;;;;;;;;;;;;;;5074982;28;20320;-70
2022/10/04 07:46:00;;;;;;;;;;;;;;;;;;5093608;28;20451;-70
2022/10/04 07:48:26;;;;;;;;;;;;;;;;;;5085887;28;19924;-70
2022/10/04 07:50:51;;;;;;;;;;;;;;;;;;5059666;28;19908;-70
2022/10/04 07:53:16;;;;;;;;;;;;;;;;;;5084823;28;19909;-70
2022/10/04 07:55:41;;;;;;;;;;;;;;;;;;5072508;28;19995;-69
2022/10/04 07:58:06;;;;;;;;;;;;;;;;;;5067789;28;20387;-70
2022/10/04 08:00:33;;;;;;;;;;;;;;;;;;5069912;28;19908;-70
2022/10/04 08:02:58;;;;;;;;;;;;;;;;;;5082184;28;19912;-70
2022/10/04 08:05:24;;;;;;;;;;;;;;;;;;5084415;28;20496;-69
2022/10/04 08:07:49;;;;;;;;;;;;;;;;;;5055057;28;19909;-70
2022/10/04 08:10:14;;;;;;;;;;;;;;;;;;5081576;28;20007;-69
2022/10/04 08:12:40;;;;;;;;;;;;;;;;;;5089723;28;19909;-71
2022/10/04 08:15:05;;;;;;;;;;;;;;;;;;5064194;28;19916;-69
2022/10/04 08:17:31;;;;;;;;;;;;;;;;;;5059948;28;19912;-69
2022/10/04 08:19:56;;;;;;;;;;;;;;;;;;5066860;28;19963;-69
2022/10/04 08:22:21;;;;;;;;;;;;;;;;;;5074275;28;20288;-70
2022/10/04 08:24:46;;;;;;;;;;;;;;;;;;5074752;28;19908;-69
2022/10/04 08:27:11;;;;;;;;;;;;;;;;;;5069986;28;20386;-70
2022/10/04 08:29:43;;;;;;;;;;;;;;;;;;5074620;28;19994;-69
2022/10/04 08:32:08;;;;;;;;;;;;;;;;;;5078894;28;19913;-69
2022/10/04 08:34:33;;;;;;;;;;;;;;;;;;5074805;28;20285;-70
2022/10/04 08:36:58;;;;;;;;;;;;;;;;;;5084183;28;19913;-70
2022/10/04 08:39:23;;;;;;;;;;;;;;;;;;5078025;28;20415;-70
2022/10/04 08:41:49;;;;;;;;;;;;;;;;;;5092604;28;19931;-66
2022/10/04 08:44:14;;;;;;;;;;;;;;;;;;5074558;28;19916;-70
2022/10/04 08:46:39;;;;;;;;;;;;;;;;;;5074369;28;19919;-70
2022/10/04 08:49:04;;;;;;;;;;;;;;;;;;5067210;28;20166;-69
2022/10/04 08:51:29;;;;;;;;;;;;;;;;;;5085197;28;20296;-70
2022/10/04 08:53:55;;;;;;;;;;;;;;;;;;5090479;28;20398;-70
2022/10/04 08:56:20;;;;;;;;;;;;;;;;;;5054185;28;19916;-73
2022/10/04 08:58:45;;;;;;;;;;;;;;;;;;5090091;28;20118;-73
2022/10/04 09:01:10;;;;;;;;;;;;;;;;;;5064081;28;19908;-73
2022/10/04 09:03:35;;;;;;;;;;;;;;;;;;5054499;28;19920;-73
2022/10/04 09:06:00;;;;;;;;;;;;;;;;;;5077075;28;19912;-72
2022/10/04 09:08:25;;;;;;;;;;;;;;;;;;5057992;28;20427;-70
2022/10/04 09:10:51;;;;;;;;;;;;;;;;;;5091247;28;19911;-72
2022/10/04 09:13:16;;;;;;;;;;;;;;;;;;5066136;28;19978;-71
2022/10/04 09:15:41;;;;;;;;;;;;;;;;;;5091558;28;20288;-73
2022/10/04 09:18:06;;;;;;;;;;;;;;;;;;5088428;28;20437;-71
2022/10/04 09:20:32;;;;;;;;;;;;;;;;;;5064412;28;20007;-72
2022/10/04 09:22:57;;;;;;;;;;;;;;;;;;5064156;28;20296;-72
2022/10/04 09:25:22;;;;;;;;;;;;;;;;;;5071942;28;20288;-73
2022/10/04 09:27:47;;;;;;;;;;;;;;;;;;5071282;28;19943;-70
2022/10/04 09:30:13;;;;;;;;;;;;;;;;;;5075908;28;20380;-69
2022/10/04 09:32:38;;;;;;;;;;;;;;;;;;5074820;28;20011;-69
2022/10/04 09:35:05;;;;;;;;;;;;;;;;;;5073653;28;19913;-70
2022/10/04 09:37:30;;;;;;;;;;;;;;;;;;5067655;28;19912;-69
2022/10/04 09:39:57;;;;;;;;;;;;;;;;;;5061580;28;20018;-70
2022/10/04 09:42:22;;;;;;;;;;;;;;;;;;5054130;28;19952;-69
2022/10/04 09:44:47;;;;;;;;;;;;;;;;;;5054785;28;19978;-70
2022/10/04 09:47:12;;;;;;;;;;;;;;;;;;5054803;28;19925;-71
2022/10/04 09:49:37;;;;;;;;;;;;;;;;;;5065335;28;20014;-70
2022/10/04 09:52:03;;;;;;;;;;;;;;;;;;5074226;28;19908;-71
2022/10/04 09:54:28;;;;;;;;;;;;;;;;;;5068019;28;19913;-70
2022/10/04 09:56:55;;;;;;;;;;;;;;;;;;5068621;28;22059;-69
2022/10/04 09:59:21;;;;;;;;;;;;;;;;;;5055460;28;20285;-70
2022/10/04 10:01:47;;;;;;;;;;;;;;;;;;5065105;28;19924;-68
2022/10/04 10:04:13;;;;;;;;;;;;;;;;;;5070376;28;20424;-70
2022/10/04 10:06:40;;;;;;;;;;;;;;;;;;5063272;28;20015;-69
2022/10/04 10:09:05;;;;;;;;;;;;;;;;;;5068391;28;19913;-69
2022/10/04 10:14:14;;;;;;;;;;;;;;;;;;5064959;28;19924;-70
2022/10/04 10:16:40;;;;;;;;;;;;;;;;;;5064304;28;19912;-70
2022/10/04 10:19:05;;;;;;;;;;;;;;;;;;5060450;28;19917;-70
2022/10/04 10:21:31;;;;;;;;;;;;;;;;;;5066829;28;19966;-69
2022/10/04 10:23:56;;;;;;;;;;;;;;;;;;5060090;28;19913;-70
2022/10/04 10:26:22;;;;;;;;;;;;;;;;;;5049485;28;19916;-70
2022/10/04 10:28:48;;;;;;;;;;;;;;;;;;5056486;28;19909;-70
2022/10/04 10:31:13;;;;;;;;;;;;;;;;;;5056122;28;19913;-69
2022/10/04 10:33:38;;;;;;;;;;;;;;;;;;5063786;28;19917;-70
2022/10/04 10:36:03;;;;;;;;;;;;;;;;;;5060766;28;20315;-70
2022/10/04 10:38:30;;;;;;;;;;;;;;;;;;5050026;28;20297;-70
2022/10/04 10:40:59;;;;;;;;;;;;;;;;;;5053606;28;19916;-69
2022/10/04 10:43:24;;;;;;;;;;;;;;;;;;5050163;28;19966;-70
2022/10/04 10:45:49;;;;;;;;;;;;;;;;;;5065615;28;19916;-69
2022/10/04 10:48:16;;;;;;;;;;;;;;;;;;5061324;28;19913;-70
2022/10/04 10:50:57;;;;;;;;;;;;;;;;;;5050777;28;19908;-70
2022/10/04 10:53:22;;;;;;;;;;;;;;;;;;5061604;28;19908;-70
2022/10/04 10:55:48;;;;;;;;;;;;;;;;;;5074118;28;19912;-69
2022/10/04 10:58:13;;;;;;;;;;;;;;;;;;5059039;28;19916;-70
2022/10/04 11:00:38;;;;;;;;;;;;;;;;;;5064232;28;19916;-69
2022/10/04 11:03:04;;;;;;;;;;;;;;;;;;5070553;28;19939;-70
2022/10/04 11:05:29;;;;;;;;;;;;;;;;;;5062559;28;19924;-70
2022/10/04 11:07:54;;;;;;;;;;;;;;;;;;5054363;28;19915;-71
2022/10/04 11:10:20;;;;;;;;;;;;;;;;;;5054940;28;19908;-70
2022/10/04 11:12:45;;;;;;;;;;;;;;;;;;5055387;28;19943;-70
2022/10/04 11:15:13;;;;;;;;;;;;;;;;;;5061368;28;19913;-70
2022/10/04 11:17:38;;;;;;;;;;;;;;;;;;5064133;28;19951;-70
2022/10/04 11:20:04;;;;;;;;;;;;;;;;;;5056459;28;19956;-71
2022/10/04 11:22:29;;;;;;;;;;;;;;;;;;5040892;28;19917;-70
2022/10/04 11:24:54;;;;;;;;;;;;;;;;;;5058601;28;19912;-71
2022/10/04 11:27:19;;;;;;;;;;;;;;;;;;5051287;28;19913;-70
2022/10/04 11:29:44;;;;;;;;;;;;;;;;;;5053934;28;19958;-71
2022/10/04 11:32:09;;;;;;;;;;;;;;;;;;5070648;28;20439;-70
2022/10/04 11:34:36;;;;;;;;;;;;;;;;;;5054270;28;19969;-71
2022/10/04 11:37:01;;;;;;;;;;;;;;;;;;5053845;28;19962;-71
2022/10/04 11:39:29;;;;;;;;;;;;;;;;;;5052730;28;20003;-70
2022/10/04 11:41:54;;;;;;;;;;;;;;;;;;5060963;28;19936;-71
2022/10/04 11:44:19;;;;;;;;;;;;;;;;;;5060910;28;20285;-70
2022/10/04 11:46:45;;;;;;;;;;;;;;;;;;5050403;28;19928;-69
2022/10/04 11:49:10;;;;;;;;;;;;;;;;;;5051189;28;20317;-70
2022/10/04 11:51:35;;;;;;;;;;;;;;;;;;5053902;28;20004;-70
2022/10/04 11:54:02;;;;;;;;;;;;;;;;;;5050352;28;19924;-70
2022/10/04 11:56:28;;;;;;;;;;;;;;;;;;5049656;28;19919;-70
2022/10/04 11:58:53;;;;;;;;;;;;;;;;;;5066449;28;20288;-70
2022/10/04 12:01:18;;;;;;;;;;;;;;;;;;5066489;28;19912;-70
2022/10/04 12:03:43;;;;;;;;;;;;;;;;;;5052947;28;19912;-69
2022/10/04 12:06:09;;;;;;;;;;;;;;;;;;5044712;28;20419;-70
2022/10/04 12:08:34;;;;;;;;;;;;;;;;;;5045376;28;20384;-75
2022/10/04 12:10:59;;;;;;;;;;;;;;;;;;5061826;28;19952;-68
2022/10/04 12:13:24;;;;;;;;;;;;;;;;;;5066658;28;19967;-72
2022/10/04 12:15:49;;;;;;;;;;;;;;;;;;5033811;28;19923;-69
2022/10/04 12:18:14;;;;;;;;;;;;;;;;;;5055505;28;19983;-72
2022/10/04 12:20:40;;;;;;;;;;;;;;;;;;5056680;28;19928;-71
2022/10/04 12:23:05;;;;;;;;;;;;;;;;;;5066145;28;19912;-71
2022/10/04 12:25:30;;;;;;;;;;;;;;;;;;5058687;28;19935;-71
2022/10/04 12:27:55;;;;;;;;;;;;;;;;;;5053504;28;19975;-71
2022/10/04 12:30:20;;;;;;;;;;;;;;;;;;5053669;28;19920;-71
2022/10/04 12:32:45;;;;;;;;;;;;;;;;;;5067136;28;19920;-70
2022/10/04 12:35:10;;;;;;;;;;;;;;;;;;5066951;28;19957;-68
2022/10/04 12:37:37;;;;;;;;;;;;;;;;;;5062079;28;19920;-68
2022/10/04 12:40:02;;;;;;;;;;;;;;;;;;5071892;28;19970;-71
2022/10/04 12:42:28;;;;;;;;;;;;;;;;;;5070749;28;19994;-71
2022/10/04 12:44:53;;;;;;;;;;;;;;;;;;5051289;28;19905;-72
2022/10/04 12:47:19;;;;;;;;;;;;;;;;;;5050990;28;19985;-71
2022/10/04 12:49:44;;;;;;;;;;;;;;;;;;5051555;28;19920;-70
2022/10/04 12:52:09;;;;;;;;;;;;;;;;;;5056455;28;19913;-69
2022/10/04 12:54:34;;;;;;;;;;;;;;;;;;5059080;28;20529;-71
2022/10/04 12:57:00;;;;;;;;;;;;;;;;;;5063636;28;19912;-71
2022/10/04 12:59:26;;;;;;;;;;;;;;;;;;5057752;28;19956;-71
2022/10/04 13:01:51;;;;;;;;;;;;;;;;;;5059026;28;19932;-72
2022/10/04 13:04:16;;;;;;;;;;;;;;;;;;5068260;28;20353;-70
2022/10/04 13:06:42;;;;;;;;;;;;;;;;;;5064215;28;20273;-71
2022/10/04 13:09:08;;;;;;;;;;;;;;;;;;5052219;28;20270;-71
2022/10/04 13:11:33;;;;;;;;;;;;;;;;;;5064844;28;19916;-71
2022/10/04 13:13:59;;;;;;;;;;;;;;;;;;5062191;28;20023;-71
2022/10/04 13:16:26;;;;;;;;;;;;;;;;;;5059577;28;19913;-72
2022/10/04 13:18:51;;;;;;;;;;;;;;;;;;5065704;28;19977;-70
2022/10/04 13:21:16;;;;;;;;;;;;;;;;;;5071746;28;19917;-71
2022/10/04 13:23:42;;;;;;;;;;;;;;;;;;5060443;28;20419;-71
2022/10/04 13:26:07;;;;;;;;;;;;;;;;;;5074047;28;19928;-70
2022/10/04 13:28:32;;;;;;;;;;;;;;;;;;5078183;28;19978;-71
2022/10/04 13:30:59;;;;;;;;;;;;;;;;;;5072223;28;19916;-70
2022/10/04 13:33:25;;;;;;;;;;;;;;;;;;5086114;28;19912;-70
2022/10/04 13:35:50;;;;;;;;;;;;;;;;;;5079868;28;19919;-70
2022/10/04 13:38:15;;;;;;;;;;;;;;;;;;5084872;28;20268;-68
2022/10/04 13:40:41;;;;;;;;;;;;;;;;;;5071829;28;20019;-69
2022/10/04 13:43:06;;;;;;;;;;;;;;;;;;5083785;28;19962;-71
2022/10/04 13:45:33;;;;;;;;;;;;;;;;;;5061611;28;19942;-69
2022/10/04 13:47:58;;;;;;;;;;;;;;;;;;5082342;28;19920;-71
2022/10/04 13:50:23;;;;;;;;;;;;;;;;;;5082745;28;19919;-72
2022/10/04 13:58:33;;;;;;;;;;;;;;;;;;4981311;28;20025;-69
2022/10/04 14:00:58;;;;;;;;;;;;;;;;;;4981364;28;20004;-69
2022/10/04 14:03:23;;;;;;;;;;;;;;;;;;4984030;28;19914;-68
2022/10/04 14:05:49;;;;;;;;;;;;;;;;;;4984052;28;19918;-67
2022/10/04 14:08:14;;;;;;;;;;;;;;;;;;4981095;28;19921;-69
2022/10/04 14:10:39;;;;;;;;;;;;;;;;;;4978920;28;19949;-67
2022/10/04 14:13:05;;;;;;;;;;;;;;;;;;4981777;28;19914;-69
2022/10/04 14:15:30;;;;;;;;;;;;;;;;;;4981205;28;19956;-68
2022/10/04 14:17:55;;;;;;;;;;;;;;;;;;4988450;28;19914;-69
2022/10/04 14:20:22;;;;;;;;;;;;;;;;;;4968056;28;19934;-69
2022/10/04 14:22:47;;;;;;;;;;;;;;;;;;4969650;28;20465;-69
2022/10/04 14:25:12;;;;;;;;;;;;;;;;;;4970024;28;19914;-69
2022/10/04 14:27:38;;;;;;;;;;;;;;;;;;4963155;28;19923;-71
2022/10/04 14:30:05;;;;;;;;;;;;;;;;;;5031029;28;20414;-70
2022/10/04 14:32:30;;;;;;;;;;;;;;;;;;5054321;28;19938;-70
2022/10/04 14:34:56;;;;;;;;;;;;;;;;;;5041976;28;19921;-71
2022/10/04 14:37:22;;;;;;;;;;;;;;;;;;5057412;28;20067;-70
2022/10/04 14:39:47;;;;;;;;;;;;;;;;;;5037445;28;19909;-70
2022/10/04 14:42:13;;;;;;;;;;;;;;;;;;5073952;28;20322;-71
2022/10/04 14:44:38;;;;;;;;;;;;;;;;;;5059787;28;19916;-68
2022/10/04 14:47:03;;;;;;;;;;;;;;;;;;5048699;28;19916;-69
2022/10/04 14:49:29;;;;;;;;;;;;;;;;;;5041646;28;19921;-66
2022/10/04 14:51:54;;;;;;;;;;;;;;;;;;5066029;28;19920;-69
2022/10/04 14:54:19;;;;;;;;;;;;;;;;;;5062509;28;20452;-68
2022/10/04 14:56:45;;;;;;;;;;;;;;;;;;5043649;28;19913;-69
2022/10/04 14:59:10;;;;;;;;;;;;;;;;;;5063912;28;19951;-68
2022/10/04 15:01:37;;;;;;;;;;;;;;;;;;5067675;28;19916;-69
2022/10/04 15:04:02;;;;;;;;;;;;;;;;;;5063769;28;20349;-68
2022/10/04 15:06:27;;;;;;;;;;;;;;;;;;5059423;28;19920;-69
2022/10/04 15:08:52;;;;;;;;;;;;;;;;;;5055939;28;19915;-68
2022/10/04 15:11:17;;;;;;;;;;;;;;;;;;5058116;28;19908;-67
2022/10/04 15:13:42;;;;;;;;;;;;;;;;;;5055395;28;20334;-67
2022/10/04 15:16:08;;;;;;;;;;;;;;;;;;5056737;28;20720;-68
2022/10/04 15:18:34;;;;;;;;;;;;;;;;;;5058333;28;19952;-68
2022/10/04 15:21:17;;;;;;;;;;;;;;;;;;5094821;27;19985;-68
2022/10/04 15:23:42;;;;;;;;;;;;;;;;;;5081666;28;20416;-67
2022/10/04 15:26:07;;;;;;;;;;;;;;;;;;5087022;28;19920;-68
2022/10/04 15:28:32;;;;;;;;;;;;;;;;;;5116849;27;19919;-67
2022/10/04 15:30:57;;;;;;;;;;;;;;;;;;5116257;27;19912;-68
2022/10/04 15:33:22;;;;;;;;;;;;;;;;;;5117105;27;19913;-67
2022/10/04 15:35:48;;;;;;;;;;;;;;;;;;5079776;28;19916;-66
2022/10/04 15:38:13;;;;;;;;;;;;;;;;;;5084490;28;20403;-67
2022/10/04 15:40:39;;;;;;;;;;;;;;;;;;5084123;28;19969;-69
2022/10/04 15:43:04;;;;;;;;;;;;;;;;;;5080495;28;19919;-67
2022/10/04 15:45:29;;;;;;;;;;;;;;;;;;5076330;28;19913;-68
2022/10/04 15:47:55;;;;;;;;;;;;;;;;;;5081072;28;19948;-66
2022/10/04 15:50:20;;;;;;;;;;;;;;;;;;5076111;28;19912;-67
2022/10/04 15:52:45;;;;;;;;;;;;;;;;;;5077146;28;20333;-66
2022/10/04 15:55:11;;;;;;;;;;;;;;;;;;5080790;28;20265;-67
2022/10/04 15:57:36;;;;;;;;;;;;;;;;;;5079922;28;19924;-65
2022/10/04 16:00:01;;;;;;;;;;;;;;;;;;5112595;27;19969;-67
2022/10/04 16:02:26;;;;;;;;;;;;;;;;;;5076884;28;20007;-66
2022/10/04 16:04:51;;;;;;;;;;;;;;;;;;5077602;28;20296;-67
2022/10/04 16:07:17;;;;;;;;;;;;;;;;;;5074543;28;19921;-67
2022/10/04 16:09:42;;;;;;;;;;;;;;;;;;5081280;28;19958;-66
2022/10/04 16:12:07;;;;;;;;;;;;;;;;;;5111911;28;19912;-66
2022/10/04 16:14:32;;;;;;;;;;;;;;;;;;5078558;28;19912;-66
2022/10/04 16:16:58;;;;;;;;;;;;;;;;;;5084621;28;19951;-66
2022/10/04 16:19:23;;;;;;;;;;;;;;;;;;5107663;27;20433;-67
2022/10/04 16:21:49;;;;;;;;;;;;;;;;;;5117738;28;20024;-67
2022/10/04 16:24:14;;;;;;;;;;;;;;;;;;5083696;28;19912;-68
2022/10/04 16:26:39;;;;;;;;;;;;;;;;;;5080997;28;19913;-67
2022/10/04 16:29:05;;;;;;;;;;;;;;;;;;5079547;28;20077;-67
2022/10/04 16:31:30;;;;;;;;;;;;;;;;;;5079704;28;20003;-68
2022/10/04 16:33:55;;;;;;;;;;;;;;;;;;5076297;28;19913;-67
2022/10/04 16:36:20;;;;;;;;;;;;;;;;;;5063858;28;19949;-66
2022/10/04 16:39:57;;;;;;;;;;;;;;;;;;5072443;28;20388;-67
2022/10/04 16:41:30;;;;;;;;;;;;;;;;;;5063139;28;20324;-65
2022/10/04 16:43:56;;;;;;;;;;;;;;;;;;5068783;28;20001;-72
2022/10/04 16:46:21;;;;;;;;;;;;;;;;;;5065767;28;19912;-67
2022/10/04 16:48:47;;;;;;;;;;;;;;;;;;5064911;28;19917;-65